createdAt,value
2019-05-11T00:01:09.842Z,6.60
2019-05-11T00:03:38.299Z,6.50
2019-05-11T00:06:06.794Z,6.40
2019-05-11T00:08:35.249Z,6.40
2019-05-11T00:11:03.677Z,6.40
2019-05-11T00:13:32.112Z,6.40
2019-05-11T00:16:00.555Z,6.40
2019-05-11T00:18:29.009Z,6.30
2019-05-11T00:20:57.476Z,6.30
2019-05-11T00:23:25.919Z,6.20
2019-05-11T00:25:54.356Z,6.20
2019-05-11T00:28:22.783Z,6.10
2019-05-11T00:30:51.284Z,6.10
2019-05-11T00:33:19.727Z,6.10
2019-05-11T00:35:48.169Z,6.00
2019-05-11T00:38:16.609Z,6.00
2019-05-11T00:40:45.146Z,6.00
2019-05-11T00:43:13.575Z,5.90
2019-05-11T00:45:42.012Z,5.90
2019-05-11T00:48:10.537Z,5.80
2019-05-11T00:50:40.063Z,5.80
2019-05-11T00:53:08.785Z,5.70
2019-05-11T00:55:37.220Z,5.70
2019-05-11T00:58:05.645Z,5.60
2019-05-11T01:00:34.094Z,5.60
2019-05-11T01:03:02.518Z,5.50
2019-05-11T01:05:30.964Z,5.40
2019-05-11T01:07:59.400Z,5.40
2019-05-11T01:10:41.124Z,5.40
2019-05-11T01:12:59.551Z,5.40
2019-05-11T01:15:28.066Z,5.40
2019-05-11T01:17:56.570Z,5.30
2019-05-11T01:20:24.994Z,5.30
2019-05-11T01:22:54.980Z,5.30
2019-05-11T01:25:23.403Z,5.30
2019-05-11T01:27:51.852Z,5.20
2019-05-11T01:30:20.278Z,5.20
2019-05-11T01:32:48.720Z,5.20
2019-05-11T01:35:18.695Z,5.20
2019-05-11T01:37:47.145Z,5.10
2019-05-11T01:40:23.104Z,5.10
2019-05-11T01:42:51.590Z,5.00
2019-05-11T01:45:20.022Z,5.00
2019-05-11T01:47:48.452Z,5.00
2019-05-11T01:50:16.900Z,5.00
2019-05-11T01:52:45.338Z,5.00
2019-05-11T01:55:13.868Z,4.90
2019-05-11T01:57:42.315Z,4.90
2019-05-11T02:00:11.182Z,4.90
2019-05-11T02:02:39.806Z,4.90
2019-05-11T02:05:28.446Z,4.90
2019-05-11T02:07:59.332Z,4.80
2019-05-11T02:10:29.694Z,4.80
2019-05-11T02:13:00.937Z,4.80
2019-05-11T02:15:29.515Z,4.80
2019-05-11T02:17:57.959Z,4.80
2019-05-11T02:20:26.391Z,4.80
2019-05-11T02:22:54.834Z,4.70
2019-05-11T02:25:23.276Z,4.70
2019-05-11T02:27:51.724Z,4.70
2019-05-11T02:30:20.309Z,4.60
2019-05-11T02:32:48.901Z,4.60
2019-05-11T02:35:17.423Z,4.60
2019-05-11T02:37:46.664Z,4.60
2019-05-11T02:40:15.736Z,4.70
2019-05-11T02:42:44.175Z,4.60
2019-05-11T02:45:13.174Z,4.60
2019-05-11T02:47:41.598Z,4.60
2019-05-11T02:50:10.219Z,4.60
2019-05-11T02:52:38.989Z,4.50
2019-05-11T02:55:07.970Z,4.50
2019-05-11T02:57:36.414Z,4.40
2019-05-11T03:00:08.099Z,4.40
2019-05-11T03:02:36.552Z,4.40
2019-05-11T03:05:06.996Z,4.30
2019-05-11T03:07:35.506Z,4.40
2019-05-11T03:10:04.695Z,4.30
2019-05-11T03:12:33.127Z,4.30
2019-05-11T03:15:01.575Z,4.20
2019-05-11T03:17:31.657Z,4.20
2019-05-11T03:20:00.115Z,4.20
2019-05-11T03:22:28.617Z,4.20
2019-05-11T03:24:57.055Z,4.20
2019-05-11T03:27:25.487Z,4.10
2019-05-11T03:29:53.924Z,4.10
2019-05-11T03:32:22.365Z,4.10
2019-05-11T03:34:50.791Z,4.10
2019-05-11T03:37:19.225Z,4.10
2019-05-11T03:39:47.705Z,4.10
2019-05-11T03:42:16.155Z,4.10
2019-05-11T03:44:44.588Z,4.10
2019-05-11T03:47:13.022Z,4.10
2019-05-11T03:49:41.455Z,4.10
2019-05-11T03:52:09.904Z,4.10
2019-05-11T03:54:38.346Z,4.10
2019-05-11T03:57:06.770Z,4.00
2019-05-11T03:59:35.219Z,4.00
2019-05-11T04:02:03.721Z,4.10
2019-05-11T04:04:32.159Z,4.10
2019-05-11T04:07:00.595Z,4.10
2019-05-11T04:09:29.049Z,4.10
2019-05-11T04:11:57.492Z,4.10
2019-05-11T04:14:25.944Z,4.10
2019-05-11T04:16:54.377Z,4.10
2019-05-11T04:19:22.817Z,4.20
2019-05-11T04:21:51.261Z,4.20
2019-05-11T04:24:24.718Z,4.20
2019-05-11T04:26:53.149Z,4.30
2019-05-11T04:29:21.612Z,4.30
2019-05-11T04:31:50.115Z,4.30
2019-05-11T04:34:18.559Z,4.40
2019-05-11T04:36:47.073Z,4.50
2019-05-11T04:39:15.588Z,4.50
2019-05-11T04:41:44.012Z,4.60
2019-05-11T04:44:12.461Z,4.70
2019-05-11T04:46:40.902Z,4.70
2019-05-11T04:49:09.358Z,4.90
2019-05-11T04:51:37.845Z,4.90
2019-05-11T04:54:06.290Z,5.00
2019-05-11T04:56:34.724Z,5.10
2019-05-11T04:59:05.968Z,5.20
2019-05-11T05:01:34.410Z,5.30
2019-05-11T05:04:13.299Z,5.30
2019-05-11T05:06:39.027Z,5.40
2019-05-11T05:09:09.944Z,5.50
2019-05-11T05:11:38.590Z,5.50
2019-05-11T05:14:08.403Z,5.60
2019-05-11T05:16:37.199Z,5.60
2019-05-11T05:19:08.613Z,5.70
2019-05-11T05:21:37.085Z,5.70
2019-05-11T05:24:05.520Z,5.80
2019-05-11T05:26:33.963Z,5.80
2019-05-11T05:29:02.398Z,5.90
2019-05-11T05:31:30.836Z,6.00
2019-05-11T05:34:01.393Z,6.10
2019-05-11T05:36:29.460Z,6.20
2019-05-11T05:38:57.904Z,6.30
2019-05-11T05:41:26.422Z,6.30
2019-05-11T05:43:57.292Z,6.40
2019-05-11T05:46:25.749Z,6.60
2019-05-11T05:48:54.174Z,6.70
2019-05-11T05:51:22.619Z,6.80
2019-05-11T05:53:51.059Z,6.90
2019-05-11T05:56:19.517Z,7.00
2019-05-11T05:58:47.942Z,7.10
2019-05-11T06:01:16.384Z,7.30
2019-05-11T06:03:44.825Z,7.70
2019-05-11T06:06:13.253Z,8.20
2019-05-11T06:08:43.315Z,8.50
2019-05-11T06:11:11.917Z,8.60
2019-05-11T06:13:44.999Z,8.70
2019-05-11T06:16:10.520Z,8.70
2019-05-11T06:18:38.992Z,8.70
2019-05-11T06:21:07.432Z,8.90
2019-05-11T06:23:35.900Z,9.20
2019-05-11T06:26:04.386Z,9.60
2019-05-11T06:28:32.850Z,10.20
2019-05-11T06:31:01.294Z,10.60
2019-05-11T06:33:29.738Z,11.00
2019-05-11T06:35:58.182Z,11.40
2019-05-11T06:38:26.614Z,12.10
2019-05-11T06:40:56.599Z,12.40
2019-05-11T06:43:25.047Z,12.90
2019-05-11T06:45:53.484Z,13.10
2019-05-11T06:48:21.921Z,13.50
2019-05-11T06:50:50.620Z,13.70
2019-05-11T06:53:19.181Z,13.70
2019-05-11T06:55:47.708Z,13.90
2019-05-11T06:58:16.138Z,13.70
2019-05-11T07:00:46.866Z,13.80
2019-05-11T07:03:15.305Z,14.00
2019-05-11T07:05:43.746Z,14.10
2019-05-11T07:08:12.247Z,13.90
2019-05-11T07:10:40.770Z,13.70
2019-05-11T07:13:09.195Z,13.60
2019-05-11T07:15:37.647Z,13.50
2019-05-11T07:18:06.140Z,13.50
2019-05-11T07:20:49.557Z,13.40
2019-05-11T07:23:04.910Z,13.40
2019-05-11T07:25:33.472Z,13.40
2019-05-11T07:28:02.279Z,13.40
2019-05-11T07:30:30.903Z,13.50
2019-05-11T07:33:01.098Z,13.60
2019-05-11T07:35:29.514Z,13.70
2019-05-11T07:37:58.263Z,13.90
2019-05-11T07:40:27.925Z,14.00
2019-05-11T07:42:58.783Z,14.10
2019-05-11T07:45:28.337Z,14.00
2019-05-11T07:47:59.020Z,14.00
2019-05-11T07:50:28.425Z,14.00
2019-05-11T07:52:58.886Z,14.00
2019-05-11T07:55:28.208Z,14.10
2019-05-11T07:57:58.544Z,14.10
2019-05-11T08:00:28.373Z,14.00
2019-05-11T08:02:58.510Z,13.90
2019-05-11T08:05:28.383Z,13.90
2019-05-11T08:07:59.302Z,13.80
2019-05-11T08:10:28.195Z,13.80
2019-05-11T08:12:58.739Z,13.80
2019-05-11T08:15:28.351Z,13.80
2019-05-11T08:17:57.843Z,13.90
2019-05-11T08:20:28.048Z,13.90
2019-05-11T08:22:58.744Z,14.10
2019-05-11T08:25:28.677Z,14.20
2019-05-11T08:27:58.810Z,14.30
2019-05-11T08:30:27.860Z,14.30
2019-05-11T08:32:58.220Z,14.60
2019-05-11T08:35:30.866Z,14.70
2019-05-11T08:37:58.242Z,14.80
2019-05-11T08:40:28.916Z,15.10
2019-05-11T08:42:58.270Z,15.20
2019-05-11T08:45:28.029Z,15.30
2019-05-11T08:47:57.909Z,15.40
2019-05-11T08:50:29.016Z,15.50
2019-05-11T08:52:58.235Z,15.60
2019-05-11T08:55:28.782Z,15.60
2019-05-11T08:57:58.586Z,15.80
2019-05-11T09:00:28.356Z,16.00
2019-05-11T09:02:58.232Z,16.10
2019-05-11T09:05:28.033Z,16.20
2019-05-11T09:07:57.815Z,16.30
2019-05-11T09:10:28.082Z,16.40
2019-05-11T09:12:58.922Z,16.60
2019-05-11T09:15:36.942Z,16.70
2019-05-11T09:17:57.799Z,16.80
2019-05-11T09:20:28.345Z,16.80
2019-05-11T09:22:58.752Z,17.00
2019-05-11T09:25:27.763Z,17.10
2019-05-11T09:27:58.520Z,17.30
2019-05-11T09:30:28.651Z,17.50
2019-05-11T09:32:58.127Z,17.60
2019-05-11T09:35:29.030Z,17.60
2019-05-11T09:37:58.808Z,17.80
2019-05-11T09:40:28.395Z,17.80
2019-05-11T09:42:58.474Z,17.80
2019-05-11T09:45:27.788Z,17.90
2019-05-11T09:47:58.205Z,18.10
2019-05-11T09:50:28.403Z,18.20
2019-05-11T09:52:58.109Z,18.10
2019-05-11T09:55:28.466Z,18.10
2019-05-11T09:57:58.010Z,18.10
2019-05-11T10:00:28.234Z,18.00
2019-05-11T10:02:57.670Z,18.00
2019-05-11T10:05:28.442Z,18.00
2019-05-11T10:07:58.707Z,18.20
2019-05-11T10:10:28.789Z,18.40
2019-05-11T10:12:58.781Z,18.60
2019-05-11T10:15:27.956Z,18.80
2019-05-11T10:17:58.229Z,18.90
2019-05-11T10:20:28.687Z,18.80
2019-05-11T10:22:57.929Z,18.90
2019-05-11T10:25:28.723Z,19.00
2019-05-11T10:27:58.034Z,19.10
2019-05-11T10:30:28.017Z,19.00
2019-05-11T10:32:57.788Z,18.80
2019-05-11T10:35:28.181Z,18.40
2019-05-11T10:37:58.339Z,18.50
2019-05-11T10:40:28.173Z,18.50
2019-05-11T10:42:59.154Z,18.70
2019-05-11T10:45:28.514Z,18.90
2019-05-11T10:48:01.185Z,19.10
2019-05-11T10:50:29.128Z,19.20
2019-05-11T10:52:59.492Z,19.10
2019-05-11T10:55:33.172Z,19.00
2019-05-11T10:58:01.607Z,18.90
2019-05-11T11:00:30.148Z,18.90
2019-05-11T11:02:58.578Z,19.00
2019-05-11T11:05:27.955Z,19.30
2019-05-11T11:07:58.662Z,19.30
2019-05-11T11:10:28.628Z,19.50
2019-05-11T11:12:57.780Z,19.60
2019-05-11T11:15:28.615Z,19.70
2019-05-11T11:17:57.914Z,19.70
2019-05-11T11:20:28.025Z,19.80
2019-05-11T11:22:58.402Z,20.00
2019-05-11T11:25:28.423Z,20.10
2019-05-11T11:27:57.819Z,20.10
2019-05-11T11:30:28.561Z,20.20
2019-05-11T11:32:58.777Z,20.20
2019-05-11T11:35:27.918Z,19.90
2019-05-11T11:37:58.490Z,19.50
2019-05-11T11:40:28.217Z,19.70
2019-05-11T11:42:58.069Z,19.80
2019-05-11T11:45:28.770Z,19.80
2019-05-11T11:47:58.050Z,19.90
2019-05-11T11:50:28.310Z,19.90
2019-05-11T11:52:57.889Z,19.90
2019-05-11T11:55:28.982Z,20.10
2019-05-11T11:57:58.841Z,20.00
2019-05-11T12:00:28.801Z,19.80
2019-05-11T12:02:58.124Z,19.40
2019-05-11T12:05:28.293Z,19.40
2019-05-11T12:07:58.007Z,19.40
2019-05-11T12:10:29.294Z,19.40
2019-05-11T12:12:58.224Z,19.40
2019-05-11T12:15:28.231Z,19.40
2019-05-11T12:17:58.797Z,19.50
2019-05-11T12:20:28.658Z,19.50
2019-05-11T12:22:58.144Z,19.50
2019-05-11T12:25:27.740Z,19.30
2019-05-11T12:27:57.727Z,19.00
2019-05-11T12:30:28.377Z,19.00
2019-05-11T12:32:57.689Z,18.90
2019-05-11T12:35:28.354Z,19.00
2019-05-11T12:37:58.516Z,19.00
2019-05-11T12:40:28.263Z,19.00
2019-05-11T12:42:59.022Z,18.80
2019-05-11T12:45:29.386Z,18.60
2019-05-11T12:47:58.664Z,18.50
2019-05-11T12:50:28.633Z,18.40
2019-05-11T12:52:58.842Z,18.40
2019-05-11T12:55:28.661Z,18.30
2019-05-11T12:57:57.949Z,18.40
2019-05-11T13:00:31.238Z,18.50
2019-05-11T13:02:58.722Z,18.50
2019-05-11T13:05:28.529Z,18.40
2019-05-11T13:07:58.676Z,18.40
2019-05-11T13:10:28.283Z,18.20
2019-05-11T13:12:58.093Z,18.30
2019-05-11T13:15:28.143Z,18.20
2019-05-11T13:17:58.140Z,18.10
2019-05-11T13:20:28.548Z,18.20
2019-05-11T13:22:58.777Z,18.10
2019-05-11T13:25:28.264Z,18.30
2019-05-11T13:27:58.517Z,18.30
2019-05-11T13:30:27.862Z,18.40
2019-05-11T13:32:57.926Z,18.30
2019-05-11T13:35:28.571Z,18.30
2019-05-11T13:37:58.465Z,18.30
2019-05-11T13:40:27.777Z,18.30
2019-05-11T13:42:58.194Z,18.20
2019-05-11T13:45:28.272Z,18.20
2019-05-11T13:47:59.199Z,17.90
2019-05-11T13:50:26.795Z,17.90
2019-05-11T13:52:55.319Z,17.80
2019-05-11T13:55:23.767Z,17.90
2019-05-11T13:57:52.198Z,17.80
2019-05-11T14:00:20.656Z,17.80
2019-05-11T14:02:49.084Z,17.70
2019-05-11T14:05:17.983Z,17.60
2019-05-11T14:07:48.362Z,17.40
2019-05-11T14:10:18.053Z,17.20
2019-05-11T14:12:47.768Z,17.20
2019-05-11T14:15:18.123Z,17.30
2019-05-11T14:17:48.546Z,17.40
2019-05-11T14:20:19.011Z,17.30
2019-05-11T14:22:48.723Z,17.20
2019-05-11T14:25:18.522Z,17.00
2019-05-11T14:27:48.037Z,17.00
2019-05-11T14:30:18.409Z,16.90
2019-05-11T14:32:47.802Z,16.90
2019-05-11T14:35:18.611Z,16.80
2019-05-11T14:37:48.666Z,16.80
2019-05-11T14:40:17.814Z,16.80
2019-05-11T14:42:48.732Z,16.80
2019-05-11T14:45:18.738Z,16.80
2019-05-11T14:47:47.809Z,16.80
2019-05-11T14:50:18.558Z,16.70
2019-05-11T14:52:48.863Z,16.80
2019-05-11T14:55:18.428Z,16.80
2019-05-11T14:57:48.563Z,16.70
2019-05-11T15:00:18.530Z,16.70
2019-05-11T15:02:49.134Z,16.60
2019-05-11T15:05:20.095Z,16.60
2019-05-11T15:07:52.046Z,16.70
2019-05-11T15:10:20.350Z,16.60
2019-05-11T15:12:49.056Z,16.50
2019-05-11T15:15:18.843Z,16.40
2019-05-11T15:17:49.241Z,16.40
2019-05-11T15:20:17.966Z,16.40
2019-05-11T15:22:48.609Z,16.30
2019-05-11T15:25:19.428Z,16.30
2019-05-11T15:27:48.727Z,16.30
2019-05-11T15:30:18.306Z,16.20
2019-05-11T15:32:48.235Z,16.10
2019-05-11T15:35:18.653Z,16.10
2019-05-11T15:37:47.956Z,16.20
2019-05-11T15:40:21.144Z,16.20
2019-05-11T15:42:49.592Z,16.20
2019-05-11T15:45:18.952Z,16.20
2019-05-11T15:47:48.662Z,16.00
2019-05-11T15:50:19.094Z,15.80
2019-05-11T15:52:48.810Z,15.70
2019-05-11T15:55:18.850Z,15.70
2019-05-11T15:57:48.393Z,15.80
2019-05-11T16:00:17.892Z,15.90
2019-05-11T16:02:48.740Z,16.00
2019-05-11T16:05:18.320Z,16.00
2019-05-11T16:07:48.883Z,15.90
2019-05-11T16:10:18.701Z,15.80
2019-05-11T16:12:48.635Z,15.90
2019-05-11T16:15:19.413Z,15.90
2019-05-11T16:17:48.797Z,15.80
2019-05-11T16:20:18.300Z,15.90
2019-05-11T16:22:48.006Z,15.60
2019-05-11T16:25:19.219Z,15.40
2019-05-11T16:27:47.145Z,15.20
2019-05-11T16:30:18.366Z,15.10
2019-05-11T16:32:48.115Z,15.00
2019-05-11T16:35:17.989Z,14.80
2019-05-11T16:37:48.639Z,14.70
2019-05-11T16:40:20.175Z,14.60
2019-05-11T16:42:47.916Z,14.50
2019-05-11T16:45:19.479Z,14.60
2019-05-11T16:47:48.403Z,14.70
2019-05-11T16:50:18.021Z,14.80
2019-05-11T16:52:48.239Z,14.90
2019-05-11T16:55:18.268Z,14.90
2019-05-11T16:57:48.368Z,15.00
2019-05-11T17:00:17.462Z,14.90
2019-05-11T17:02:49.323Z,14.90
2019-05-11T17:05:25.975Z,14.80
2019-05-11T17:07:48.487Z,14.60
2019-05-11T17:10:17.901Z,14.40
2019-05-11T17:12:48.417Z,14.00
2019-05-11T17:15:18.704Z,13.90
2019-05-11T17:17:48.616Z,13.70
2019-05-11T17:20:19.096Z,13.70
2019-05-11T17:22:48.283Z,13.60
2019-05-11T17:25:19.305Z,13.60
2019-05-11T17:27:48.705Z,13.50
2019-05-11T17:30:19.253Z,13.50
2019-05-11T17:32:49.162Z,13.50
2019-05-11T17:35:18.247Z,13.40
2019-05-11T17:37:48.500Z,13.30
2019-05-11T17:40:20.627Z,13.30
2019-05-11T17:42:53.246Z,13.20
2019-05-11T17:45:20.263Z,13.20
2019-05-11T17:47:48.700Z,13.10
2019-05-11T17:50:19.217Z,13.10
2019-05-11T17:52:48.055Z,13.10
2019-05-11T17:55:18.461Z,13.00
2019-05-11T17:57:49.598Z,13.00
2019-05-11T18:00:20.034Z,12.90
2019-05-11T18:02:49.308Z,12.80
2019-05-11T18:05:18.095Z,12.60
2019-05-11T18:07:46.666Z,12.50
2019-05-11T18:10:18.009Z,12.40
2019-05-11T18:12:45.613Z,12.30
2019-05-11T18:15:14.307Z,12.20
2019-05-11T18:17:42.825Z,12.10
2019-05-11T18:20:16.731Z,12.00
2019-05-11T18:22:41.644Z,12.00
2019-05-11T18:25:10.529Z,12.00
2019-05-11T18:27:38.996Z,12.00
2019-05-11T18:30:09.697Z,11.90
2019-05-11T18:32:39.703Z,11.90
2019-05-11T18:35:08.775Z,11.80
2019-05-11T18:37:38.932Z,11.80
2019-05-11T18:40:07.793Z,11.70
2019-05-11T18:42:39.183Z,11.60
2019-05-11T18:45:08.457Z,11.50
2019-05-11T18:47:38.147Z,11.50
2019-05-11T18:50:08.002Z,11.40
2019-05-11T18:52:36.526Z,11.30
2019-05-11T18:55:08.188Z,11.20
2019-05-11T18:57:38.216Z,11.10
2019-05-11T19:00:08.118Z,11.00
2019-05-11T19:02:38.551Z,10.90
2019-05-11T19:05:07.192Z,10.90
2019-05-11T19:07:35.713Z,10.80
2019-05-11T19:10:08.419Z,10.70
2019-05-11T19:12:37.790Z,10.60
2019-05-11T19:15:08.859Z,10.50
2019-05-11T19:17:38.466Z,10.50
2019-05-11T19:20:08.976Z,10.40
2019-05-11T19:22:38.472Z,10.40
2019-05-11T19:25:09.060Z,10.30
2019-05-11T19:27:37.689Z,10.30
2019-05-11T19:30:09.215Z,10.30
2019-05-11T19:32:38.382Z,10.20
2019-05-11T19:35:08.879Z,10.30
2019-05-11T19:37:38.856Z,10.20
2019-05-11T19:40:09.329Z,10.20
2019-05-11T19:42:45.497Z,10.10
2019-05-11T19:45:14.019Z,10.10
2019-05-11T19:47:42.536Z,10.10
2019-05-11T19:50:10.973Z,10.00
2019-05-11T19:52:39.418Z,10.00
2019-05-11T19:55:08.557Z,10.00
2019-05-11T19:57:39.150Z,9.90
2019-05-11T20:00:10.023Z,9.90
2019-05-11T20:02:39.031Z,9.80
2019-05-11T20:05:07.752Z,9.80
2019-05-11T20:07:37.774Z,9.70
2019-05-11T20:10:07.990Z,9.70
2019-05-11T20:12:38.218Z,9.70
2019-05-11T20:15:08.239Z,9.70
2019-05-11T20:17:39.029Z,9.70
2019-05-11T20:20:08.892Z,9.60
2019-05-11T20:22:38.975Z,9.70
2019-05-11T20:25:09.596Z,9.60
2019-05-11T20:27:38.809Z,9.70
2019-05-11T20:30:08.634Z,9.60
2019-05-11T20:32:38.836Z,9.60
2019-05-11T20:35:08.623Z,9.60
2019-05-11T20:37:38.393Z,9.60
2019-05-11T20:40:09.263Z,9.60
2019-05-11T20:42:38.097Z,9.50
2019-05-11T20:45:07.917Z,9.50
2019-05-11T20:47:38.174Z,9.40
2019-05-11T20:50:07.880Z,9.40
2019-05-11T20:52:39.208Z,9.40
2019-05-11T20:55:08.792Z,9.40
2019-05-11T20:57:39.191Z,9.30
2019-05-11T21:00:09.363Z,9.30
2019-05-11T21:02:38.245Z,9.30
2019-05-11T21:05:09.030Z,9.20
2019-05-11T21:07:38.745Z,9.20
2019-05-11T21:10:08.765Z,9.20
2019-05-11T21:12:38.683Z,9.20
2019-05-11T21:15:09.250Z,9.20
2019-05-11T21:17:37.765Z,9.20
2019-05-11T21:20:09.469Z,9.10
2019-05-11T21:22:40.444Z,9.10
2019-05-11T21:25:09.486Z,9.00
2019-05-11T21:27:38.555Z,9.00
2019-05-11T21:30:10.880Z,9.00
2019-05-11T21:32:40.930Z,8.90
2019-05-11T21:35:09.560Z,8.90
2019-05-11T21:37:38.977Z,8.80
2019-05-11T21:40:08.870Z,8.80
2019-05-11T21:42:39.102Z,8.80
2019-05-11T21:45:09.742Z,8.70
2019-05-11T21:47:39.048Z,8.60
2019-05-11T21:50:09.476Z,8.60
2019-05-11T21:52:38.688Z,8.50
2019-05-11T21:55:09.684Z,8.50
2019-05-11T21:57:38.518Z,8.40
2019-05-11T22:00:09.768Z,8.40
2019-05-11T22:02:38.865Z,8.40
2019-05-11T22:05:09.218Z,8.30
2019-05-11T22:07:38.836Z,8.30
2019-05-11T22:10:09.625Z,8.20
2019-05-11T22:12:39.025Z,8.20
2019-05-11T22:15:10.094Z,8.10
2019-05-11T22:17:39.690Z,8.10
2019-05-11T22:20:09.800Z,8.10
2019-05-11T22:22:39.403Z,8.00
2019-05-11T22:25:09.168Z,7.90
2019-05-11T22:27:38.843Z,7.90
2019-05-11T22:30:08.657Z,7.80
2019-05-11T22:32:38.311Z,7.80
2019-05-11T22:35:08.833Z,7.80
2019-05-11T22:37:38.610Z,7.70
2019-05-11T22:40:08.574Z,7.70
2019-05-11T22:42:37.618Z,7.70
2019-05-11T22:45:09.607Z,7.70
2019-05-11T22:47:39.241Z,7.60
2019-05-11T22:50:09.548Z,7.60
2019-05-11T22:52:40.476Z,7.50
2019-05-11T22:55:12.084Z,7.50
2019-05-11T22:57:40.395Z,7.50
2019-05-11T23:00:09.679Z,7.40
2019-05-11T23:02:38.365Z,7.40
2019-05-11T23:05:08.628Z,7.40
2019-05-11T23:07:41.151Z,7.40
2019-05-11T23:10:09.565Z,7.40
2019-05-11T23:12:38.558Z,7.30
2019-05-11T23:15:09.949Z,7.30
2019-05-11T23:17:38.799Z,7.30
2019-05-11T23:20:09.036Z,7.20
2019-05-11T23:22:57.884Z,7.20
2019-05-11T23:25:19.920Z,7.20
2019-05-11T23:27:49.992Z,7.10
2019-05-11T23:30:20.341Z,7.10
2019-05-11T23:32:49.813Z,7.10
2019-05-11T23:35:19.038Z,7.10
2019-05-11T23:37:49.596Z,7.10
2019-05-11T23:40:20.055Z,7.10
2019-05-11T23:42:49.238Z,7.10
2019-05-11T23:45:19.046Z,7.10
2019-05-11T23:47:58.911Z,7.10
2019-05-11T23:50:28.313Z,7.10
2019-05-11T23:53:06.058Z,7.00
2019-05-11T23:55:29.028Z,7.00
2019-05-11T23:57:57.875Z,7.00
